Goddard, Kentucky
Current Conditions -  °F | °C
As of 5:10 PM on Tuesday 25 Nov 2014 (Local Time) from KSYM Reporting Station
Clear Clear  
Wind Chill: 42°   Ceiling: Unl
Heat Index: 45°   Visibility: 10mi
Dew Point: 28°   Wind: 5mph
Humidity: 53%   Direction: 300°WNW
Pressure: 30.12"   Gusts: NA
Location:  38.3421°N, 83.5593°W
Report Text: KSYM 252210Z AUTO 30004KT 10SM CLR 07/M02 A3012 RMK AO2
Loading
Personal Weather Stations






























Interactive Weather Map New forecast layout! Learn more

10-Day Weather Forecast

Advertisements
Track Severe Weather on mobile